createdAt,value
2024-01-30T00:02:10.001Z,100.00
2024-01-30T00:05:12.759Z,100.00
2024-01-30T00:08:15.398Z,100.00
2024-01-30T00:11:18.010Z,100.00
2024-01-30T00:14:20.655Z,100.00
2024-01-30T00:17:23.341Z,100.00
2024-01-30T00:20:26.006Z,100.00
2024-01-30T00:23:28.531Z,100.00
2024-01-30T00:26:31.143Z,100.00
2024-01-30T00:29:35.108Z,100.00
2024-01-30T00:32:38.019Z,100.00
2024-01-30T00:35:40.639Z,100.00
2024-01-30T00:38:43.355Z,100.00
2024-01-30T00:41:45.986Z,100.00
2024-01-30T00:44:48.562Z,100.00
2024-01-30T00:47:51.156Z,100.00
2024-01-30T00:50:53.830Z,100.00
2024-01-30T00:53:56.730Z,100.00
2024-01-30T00:56:59.288Z,100.00
2024-01-30T01:00:01.920Z,100.00
2024-01-30T01:03:04.670Z,100.00
2024-01-30T01:06:07.324Z,100.00
2024-01-30T01:09:09.813Z,100.00
2024-01-30T01:12:12.348Z,100.00
2024-01-30T01:15:14.900Z,100.00
2024-01-30T01:18:17.587Z,100.00
2024-01-30T01:21:20.067Z,100.00
2024-01-30T01:24:22.646Z,100.00
2024-01-30T01:27:25.164Z,100.00
2024-01-30T01:30:27.860Z,100.00
2024-01-30T01:33:30.447Z,100.00
2024-01-30T01:36:33.039Z,100.00
2024-01-30T01:39:35.598Z,100.00
2024-01-30T01:42:38.460Z,100.00
2024-01-30T01:45:41.126Z,100.00
2024-01-30T01:48:44.588Z,100.00
2024-01-30T01:51:49.420Z,100.00
2024-01-30T01:54:52.144Z,100.00
2024-01-30T01:57:55.309Z,100.00
2024-01-30T02:01:00.108Z,100.00
2024-01-30T02:04:02.684Z,100.00
2024-01-30T02:07:05.493Z,100.00
2024-01-30T02:10:10.585Z,100.00
2024-01-30T02:13:13.323Z,100.00
2024-01-30T02:16:16.012Z,100.00
2024-01-30T02:19:18.651Z,100.00
2024-01-30T02:22:22.737Z,100.00
2024-01-30T02:25:35.207Z,100.00
2024-01-30T02:28:37.870Z,100.00
2024-01-30T02:31:40.389Z,100.00
2024-01-30T02:34:43.341Z,100.00
2024-01-30T02:37:46.018Z,100.00
2024-01-30T02:40:48.513Z,100.00
2024-01-30T02:43:51.158Z,100.00
2024-01-30T02:46:55.414Z,100.00
2024-01-30T02:49:58.087Z,100.00
2024-01-30T02:53:00.796Z,100.00
2024-01-30T02:56:04.183Z,100.00
2024-01-30T02:59:06.773Z,100.00
2024-01-30T03:02:09.432Z,100.00
2024-01-30T03:05:12.097Z,100.00
2024-01-30T03:08:14.805Z,100.00
2024-01-30T03:11:17.430Z,100.00
2024-01-30T03:14:20.011Z,100.00
2024-01-30T03:17:22.836Z,100.00
2024-01-30T03:20:25.469Z,100.00
2024-01-30T03:23:28.019Z,100.00
2024-01-30T03:26:30.590Z,100.00
2024-01-30T03:29:33.085Z,100.00
2024-01-30T03:32:35.743Z,100.00
2024-01-30T03:35:38.292Z,100.00
2024-01-30T03:38:40.766Z,100.00
2024-01-30T03:41:44.631Z,100.00
2024-01-30T03:44:47.329Z,100.00
2024-01-30T03:47:50.529Z,100.00
2024-01-30T03:50:53.076Z,100.00
2024-01-30T03:53:55.681Z,100.00
2024-01-30T03:56:58.153Z,100.00
2024-01-30T04:00:03.281Z,100.00
2024-01-30T04:03:16.830Z,100.00
2024-01-30T04:06:19.565Z,100.00
2024-01-30T04:09:22.060Z,100.00
2024-01-30T04:12:24.508Z,100.00
2024-01-30T04:15:27.404Z,100.00
2024-01-30T04:18:30.542Z,100.00
2024-01-30T04:21:33.046Z,100.00
2024-01-30T04:24:35.710Z,100.00
2024-01-30T04:27:38.456Z,100.00
2024-01-30T04:30:41.150Z,100.00
2024-01-30T04:33:43.853Z,100.00
2024-01-30T04:36:47.257Z,100.00
2024-01-30T04:39:49.862Z,100.00
2024-01-30T04:42:52.526Z,100.00
2024-01-30T04:45:55.169Z,100.00
2024-01-30T04:48:57.844Z,100.00
2024-01-30T04:52:00.455Z,100.00
2024-01-30T04:55:03.171Z,100.00
2024-01-30T04:58:05.851Z,100.00
2024-01-30T05:01:08.574Z,100.00
2024-01-30T05:04:15.804Z,100.00
2024-01-30T05:07:19.793Z,100.00
2024-01-30T05:10:22.423Z,100.00
2024-01-30T05:13:25.048Z,100.00
2024-01-30T05:16:27.735Z,100.00
2024-01-30T05:19:30.454Z,100.00
2024-01-30T05:22:33.046Z,100.00
2024-01-30T05:25:35.674Z,100.00
2024-01-30T05:28:38.896Z,100.00
2024-01-30T05:31:41.485Z,100.00
2024-01-30T05:34:44.076Z,100.00
2024-01-30T05:37:46.662Z,100.00
2024-01-30T05:40:49.193Z,100.00
2024-01-30T05:43:51.732Z,100.00
2024-01-30T05:46:54.622Z,100.00
2024-01-30T05:49:57.375Z,100.00
2024-01-30T05:52:59.978Z,100.00
2024-01-30T05:56:03.553Z,100.00
2024-01-30T05:59:06.084Z,100.00
2024-01-30T06:02:08.732Z,100.00
2024-01-30T06:05:11.562Z,100.00
2024-01-30T06:08:14.055Z,100.00
2024-01-30T06:11:16.649Z,100.00
2024-01-30T06:14:19.210Z,100.00
2024-01-30T06:17:21.742Z,100.00
2024-01-30T06:20:24.406Z,100.00
2024-01-30T06:23:26.979Z,100.00
2024-01-30T06:26:29.592Z,100.00
2024-01-30T06:29:32.169Z,100.00
2024-01-30T06:32:35.713Z,100.00
2024-01-30T06:35:44.591Z,100.00
2024-01-30T06:38:47.606Z,100.00
2024-01-30T06:41:50.558Z,100.00
2024-01-30T06:44:53.231Z,100.00
2024-01-30T06:47:55.765Z,100.00
2024-01-30T06:50:59.156Z,100.00
2024-01-30T06:54:01.755Z,100.00
2024-01-30T06:57:04.590Z,100.00
2024-01-30T07:00:07.713Z,100.00
2024-01-30T07:03:10.314Z,100.00
2024-01-30T07:06:13.218Z,100.00
2024-01-30T07:09:15.885Z,100.00
2024-01-30T07:12:21.172Z,100.00
2024-01-30T07:15:23.807Z,100.00
2024-01-30T07:18:26.455Z,100.00
2024-01-30T07:21:29.692Z,100.00
2024-01-30T07:24:32.466Z,100.00
2024-01-30T07:27:35.033Z,100.00
2024-01-30T07:30:37.793Z,100.00
2024-01-30T07:33:40.509Z,100.00
2024-01-30T07:36:43.204Z,100.00
2024-01-30T07:39:46.069Z,100.00
2024-01-30T07:42:50.645Z,100.00
2024-01-30T07:45:53.344Z,100.00
2024-01-30T07:48:57.058Z,100.00
2024-01-30T07:51:59.834Z,100.00
2024-01-30T07:55:05.185Z,100.00
2024-01-30T07:58:08.062Z,100.00
2024-01-30T08:01:10.933Z,100.00
2024-01-30T08:04:13.930Z,100.00
2024-01-30T08:07:16.966Z,100.00
2024-01-30T08:10:20.187Z,100.00
2024-01-30T08:13:23.536Z,100.00
2024-01-30T08:16:26.367Z,100.00
2024-01-30T08:19:29.180Z,100.00
2024-01-30T08:22:32.191Z,100.00
2024-01-30T08:25:34.875Z,100.00
2024-01-30T08:28:37.544Z,100.00
2024-01-30T08:31:40.375Z,100.00
2024-01-30T08:34:43.457Z,100.00
2024-01-30T08:37:46.337Z,100.00
2024-01-30T08:40:48.957Z,100.00
2024-01-30T08:43:51.616Z,100.00
2024-01-30T08:46:55.225Z,100.00
2024-01-30T08:49:59.043Z,100.00
2024-01-30T08:53:02.150Z,100.00
2024-01-30T08:56:05.361Z,100.00
2024-01-30T08:59:09.410Z,100.00
2024-01-30T09:02:17.505Z,100.00
2024-01-30T09:05:20.280Z,100.00
2024-01-30T09:08:22.974Z,100.00
2024-01-30T09:11:25.745Z,100.00
2024-01-30T09:14:29.904Z,100.00
2024-01-30T09:17:36.601Z,100.00
2024-01-30T09:20:39.318Z,100.00
2024-01-30T09:23:41.842Z,100.00
2024-01-30T09:26:44.476Z,100.00
2024-01-30T09:29:47.104Z,100.00
2024-01-30T09:32:49.847Z,99.37
2024-01-30T09:35:52.573Z,98.64
2024-01-30T09:38:55.781Z,98.86
2024-01-30T09:42:13.098Z,98.75
2024-01-30T09:45:15.941Z,98.53
2024-01-30T09:48:18.668Z,98.72
2024-01-30T09:51:23.389Z,98.01
2024-01-30T09:54:26.047Z,97.45
2024-01-30T09:57:31.593Z,97.54
2024-01-30T10:00:34.217Z,96.63
2024-01-30T10:03:39.862Z,96.63
2024-01-30T10:06:43.584Z,96.52
2024-01-30T10:09:46.978Z,96.33
2024-01-30T10:12:50.052Z,95.10
2024-01-30T10:15:56.504Z,93.63
2024-01-30T10:18:59.292Z,94.74
2024-01-30T10:22:02.012Z,95.17
2024-01-30T10:25:07.811Z,94.85
2024-01-30T10:28:10.730Z,94.96
2024-01-30T10:31:19.977Z,93.55
2024-01-30T10:37:27.463Z,93.45
2024-01-30T10:40:33.333Z,93.11
2024-01-30T10:43:43.653Z,92.03
2024-01-30T10:46:53.074Z,91.88
2024-01-30T10:49:57.389Z,91.54
2024-01-30T10:53:01.428Z,90.62
2024-01-30T10:56:05.709Z,89.85
2024-01-30T10:59:11.977Z,89.44
2024-01-30T11:02:16.037Z,89.05
2024-01-30T11:05:32.875Z,88.75
2024-01-30T11:08:36.747Z,88.57
2024-01-30T11:12:02.472Z,86.68
2024-01-30T11:15:16.040Z,86.93
2024-01-30T11:18:26.673Z,86.88
2024-01-30T11:21:29.579Z,86.43
2024-01-30T11:24:43.409Z,86.35
2024-01-30T11:27:47.161Z,86.86
2024-01-30T11:30:52.017Z,86.41
2024-01-30T11:33:55.569Z,84.80
2024-01-30T11:37:00.546Z,83.14
2024-01-30T11:40:05.300Z,82.57
2024-01-30T11:43:10.263Z,82.08
2024-01-30T11:46:13.473Z,81.96
2024-01-30T11:49:18.656Z,81.91
2024-01-30T11:52:21.398Z,81.67
2024-01-30T11:55:25.445Z,81.82
2024-01-30T11:58:28.399Z,79.85
2024-01-30T12:01:33.574Z,78.84
2024-01-30T12:04:36.605Z,76.38
2024-01-30T12:07:39.465Z,75.34
2024-01-30T12:10:43.001Z,75.66
2024-01-30T12:13:46.205Z,75.62
2024-01-30T12:16:52.195Z,75.98
2024-01-30T12:20:08.132Z,74.71
2024-01-30T12:23:13.333Z,75.63
2024-01-30T12:26:16.362Z,75.47
2024-01-30T12:29:18.977Z,74.88
2024-01-30T12:32:24.029Z,73.01
2024-01-30T12:35:28.502Z,72.03
2024-01-30T12:38:31.956Z,72.68
2024-01-30T12:41:34.592Z,72.27
2024-01-30T12:44:37.200Z,70.50
2024-01-30T12:47:40.093Z,68.89
2024-01-30T12:50:43.380Z,68.43
2024-01-30T12:53:47.867Z,67.72
2024-01-30T12:56:50.648Z,67.34
2024-01-30T12:59:53.215Z,66.96
2024-01-30T13:02:56.011Z,66.90
2024-01-30T13:05:58.808Z,66.13
2024-01-30T13:09:01.645Z,65.89
2024-01-30T13:12:04.846Z,63.48
2024-01-30T13:15:07.719Z,63.11
2024-01-30T13:18:10.435Z,62.64
2024-01-30T13:21:13.007Z,60.55
2024-01-30T13:24:15.837Z,60.80
2024-01-30T13:27:18.971Z,60.91
2024-01-30T13:30:31.447Z,59.46
2024-01-30T13:33:34.587Z,58.69
2024-01-30T13:36:37.459Z,58.67
2024-01-30T13:39:42.596Z,57.60
2024-01-30T13:42:45.506Z,57.50
2024-01-30T13:45:50.591Z,57.82
2024-01-30T13:48:53.933Z,56.75
2024-01-30T13:52:00.289Z,56.01
2024-01-30T13:55:03.488Z,56.67
2024-01-30T13:58:06.314Z,56.26
2024-01-30T14:01:09.037Z,56.44
2024-01-30T14:04:13.880Z,57.29
2024-01-30T14:07:19.644Z,57.70
2024-01-30T14:10:22.366Z,56.73
2024-01-30T14:13:26.442Z,56.10
2024-01-30T14:16:30.141Z,54.41
2024-01-30T14:19:35.964Z,55.09
2024-01-30T14:22:38.603Z,54.19
2024-01-30T14:25:41.427Z,53.69
2024-01-30T14:28:47.424Z,53.67
2024-01-30T14:31:49.932Z,52.95
2024-01-30T14:34:53.819Z,51.80
2024-01-30T14:37:56.441Z,52.32
2024-01-30T14:40:59.262Z,53.41
2024-01-30T14:44:02.655Z,52.81
2024-01-30T14:47:05.828Z,52.72
2024-01-30T14:50:09.410Z,52.38
2024-01-30T14:53:12.561Z,52.00
2024-01-30T14:56:15.318Z,52.34
2024-01-30T14:59:18.152Z,54.33
2024-01-30T15:02:21.060Z,54.88
2024-01-30T15:05:23.879Z,56.09
2024-01-30T15:08:26.720Z,57.82
2024-01-30T15:11:29.282Z,57.59
2024-01-30T15:14:31.860Z,58.32
2024-01-30T15:17:34.658Z,57.93
2024-01-30T15:20:37.252Z,58.22
2024-01-30T15:23:39.968Z,59.04
2024-01-30T15:26:42.820Z,60.42
2024-01-30T15:29:45.424Z,61.28
2024-01-30T15:32:49.042Z,62.42
2024-01-30T15:35:51.676Z,63.34
2024-01-30T15:38:54.271Z,65.11
2024-01-30T15:41:56.851Z,65.39
2024-01-30T15:45:00.010Z,66.64
2024-01-30T15:48:02.560Z,67.38
2024-01-30T15:51:05.658Z,68.71
2024-01-30T15:54:08.348Z,70.07
2024-01-30T15:57:11.361Z,72.63
2024-01-30T16:00:15.061Z,74.18
2024-01-30T16:03:18.368Z,75.57
2024-01-30T16:06:21.384Z,76.99
2024-01-30T16:09:25.122Z,78.79
2024-01-30T16:12:28.657Z,80.57
2024-01-30T16:15:31.222Z,81.03
2024-01-30T16:18:34.506Z,82.15
2024-01-30T16:21:39.739Z,82.65
2024-01-30T16:24:42.569Z,83.06
2024-01-30T16:27:45.195Z,83.48
2024-01-30T16:30:47.858Z,84.11
2024-01-30T16:33:50.842Z,84.33
2024-01-30T16:36:53.626Z,85.26
2024-01-30T16:39:56.351Z,85.94
2024-01-30T16:42:58.984Z,85.89
2024-01-30T16:46:01.736Z,85.98
2024-01-30T16:49:04.639Z,86.47
2024-01-30T16:52:08.702Z,87.13
2024-01-30T16:55:11.336Z,87.57
2024-01-30T16:58:13.939Z,88.46
2024-01-30T17:01:16.717Z,89.03
2024-01-30T17:04:23.517Z,89.94
2024-01-30T17:07:26.721Z,90.62
2024-01-30T17:10:29.755Z,91.24
2024-01-30T17:13:32.439Z,92.13
2024-01-30T17:16:35.622Z,93.01
2024-01-30T17:19:38.867Z,93.16
2024-01-30T17:22:45.183Z,94.84
2024-01-30T17:25:51.034Z,95.74
2024-01-30T17:28:53.922Z,97.33
2024-01-30T17:31:56.779Z,97.55
2024-01-30T17:34:59.418Z,98.03
2024-01-30T17:38:05.408Z,98.81
2024-01-30T17:41:12.596Z,99.17
2024-01-30T17:44:16.826Z,99.43
2024-01-30T17:47:19.655Z,100.00
2024-01-30T17:50:22.485Z,100.00
2024-01-30T17:53:25.247Z,100.00
2024-01-30T17:56:28.421Z,100.00
2024-01-30T17:59:31.090Z,100.00
2024-01-30T18:02:34.117Z,100.00
2024-01-30T18:05:37.156Z,100.00
2024-01-30T18:08:40.340Z,100.00
2024-01-30T18:11:42.890Z,100.00
2024-01-30T18:14:45.900Z,100.00
2024-01-30T18:17:48.702Z,100.00
2024-01-30T18:20:51.474Z,100.00
2024-01-30T18:23:54.044Z,100.00
2024-01-30T18:26:57.155Z,100.00
2024-01-30T18:30:00.320Z,100.00
2024-01-30T18:33:04.119Z,100.00
2024-01-30T18:36:08.673Z,100.00
2024-01-30T18:39:11.758Z,100.00
2024-01-30T18:42:14.581Z,100.00
2024-01-30T18:45:17.348Z,100.00
2024-01-30T18:48:20.177Z,100.00
2024-01-30T18:51:23.093Z,100.00
2024-01-30T18:54:26.519Z,100.00
2024-01-30T18:57:29.611Z,100.00
2024-01-30T19:00:34.568Z,100.00
2024-01-30T19:03:37.320Z,100.00
2024-01-30T19:06:40.409Z,100.00
2024-01-30T19:09:43.386Z,100.00
2024-01-30T19:12:46.638Z,100.00
2024-01-30T19:15:49.523Z,100.00
2024-01-30T19:18:52.993Z,100.00
2024-01-30T19:21:55.729Z,100.00
2024-01-30T19:24:58.390Z,100.00
2024-01-30T19:28:01.378Z,100.00
2024-01-30T19:31:04.568Z,100.00
2024-01-30T19:34:07.526Z,100.00
2024-01-30T19:37:10.380Z,100.00
2024-01-30T19:40:13.430Z,100.00
2024-01-30T19:43:16.409Z,100.00
2024-01-30T19:46:19.308Z,100.00
2024-01-30T19:49:22.013Z,100.00
2024-01-30T19:52:25.007Z,100.00
2024-01-30T19:55:27.888Z,100.00
2024-01-30T19:58:30.709Z,100.00
2024-01-30T20:01:35.491Z,100.00
2024-01-30T20:04:38.507Z,100.00
2024-01-30T20:07:41.370Z,100.00
2024-01-30T20:10:44.855Z,100.00
2024-01-30T20:13:48.149Z,100.00
2024-01-30T20:16:51.263Z,100.00
2024-01-30T20:19:54.524Z,100.00
2024-01-30T20:22:57.539Z,100.00
2024-01-30T20:26:01.382Z,100.00
2024-01-30T20:29:04.322Z,100.00
2024-01-30T20:32:07.368Z,100.00
2024-01-30T20:35:10.028Z,100.00
2024-01-30T20:38:12.684Z,100.00
2024-01-30T20:41:16.190Z,100.00
2024-01-30T20:44:20.893Z,100.00
2024-01-30T20:47:23.933Z,100.00
2024-01-30T20:50:26.591Z,100.00
2024-01-30T20:53:29.680Z,100.00
2024-01-30T20:56:32.493Z,100.00
2024-01-30T20:59:35.080Z,100.00
2024-01-30T21:02:38.532Z,100.00
2024-01-30T21:05:43.243Z,100.00
2024-01-30T21:08:46.168Z,100.00
2024-01-30T21:11:49.081Z,100.00
2024-01-30T21:14:52.475Z,100.00
2024-01-30T21:17:55.383Z,100.00
2024-01-30T21:20:59.274Z,100.00
2024-01-30T21:24:02.121Z,100.00
2024-01-30T21:27:04.777Z,100.00
2024-01-30T21:30:08.274Z,100.00
2024-01-30T21:33:10.897Z,100.00
2024-01-30T21:36:13.437Z,100.00
2024-01-30T21:39:15.937Z,100.00
2024-01-30T21:42:19.549Z,100.00
2024-01-30T21:45:24.198Z,100.00
2024-01-30T21:48:26.676Z,100.00
2024-01-30T21:51:29.623Z,100.00
2024-01-30T21:54:32.665Z,100.00
2024-01-30T21:57:35.319Z,100.00
2024-01-30T22:00:37.854Z,100.00
2024-01-30T22:03:42.304Z,100.00
2024-01-30T22:06:45.421Z,100.00
2024-01-30T22:09:47.997Z,100.00
2024-01-30T22:12:50.641Z,100.00
2024-01-30T22:15:53.278Z,100.00
2024-01-30T22:18:56.097Z,100.00
2024-01-30T22:21:58.752Z,100.00
2024-01-30T22:25:01.529Z,100.00
2024-01-30T22:28:04.624Z,100.00
2024-01-30T22:31:07.282Z,100.00
2024-01-30T22:34:09.876Z,100.00
2024-01-30T22:37:12.521Z,100.00
2024-01-30T22:40:15.275Z,100.00
2024-01-30T22:43:17.861Z,100.00
2024-01-30T22:46:21.177Z,100.00
2024-01-30T22:49:24.006Z,100.00
2024-01-30T22:52:26.873Z,100.00
2024-01-30T22:55:29.605Z,100.00
2024-01-30T22:58:32.402Z,100.00
2024-01-30T23:01:35.161Z,100.00
2024-01-30T23:04:37.980Z,100.00
2024-01-30T23:07:41.845Z,100.00
2024-01-30T23:10:44.536Z,100.00
2024-01-30T23:13:47.095Z,100.00
2024-01-30T23:16:49.629Z,100.00
2024-01-30T23:19:52.177Z,100.00
2024-01-30T23:22:54.723Z,100.00
2024-01-30T23:25:57.283Z,100.00
2024-01-30T23:28:59.885Z,100.00
2024-01-30T23:32:02.368Z,100.00
2024-01-30T23:35:05.967Z,100.00
2024-01-30T23:38:08.720Z,100.00
2024-01-30T23:41:11.229Z,100.00
2024-01-30T23:44:13.886Z,100.00
2024-01-30T23:47:16.380Z,100.00
2024-01-30T23:50:18.972Z,100.00
2024-01-30T23:53:21.524Z,100.00
2024-01-30T23:56:24.159Z,100.00
2024-01-30T23:59:26.706Z,100.00
